< < Back
Terminal Aerodrome Forecast


Current Version              Previous Versions:   1  2  3  4  5  6  7  8  9  

Terminal Aerodrome Forecast

452
FTUS42 KCHS 282323
TAFCHS
TAF
KCHS 282323Z 2900/2924 33005KT P6SM FEW050
     FM290900 01008KT P6SM SKC=

Latest METAR

055
SAUS80 KWBC 300200 RRB
MTRCHS
METAR KCHS 300156Z 19003KT 10SM CLR 07/00 A3035 RMK AO2 SLP277
T00720000


USA.gov is the U.S. government's official web portal to all federal, state and local government web resources and services.